Time;durP1;ratioP1;P1;durP2;ratioP2;P2;SDS_P1;SDS_P2;PMS_P1;PMS_P2;Temp;Humidity;BMP_temperature;BMP_pressure;BME280_temperature;BME280_humidity;BME280_pressure;Samples;Min_cycle;Max_cycle;Signal;HPM_P1;HPM_P2
2022/10/24 00:01:17;;;;;;;4.20;1.55;;;25.50;66.50;;;;;;4170920;28;20123;-51
2022/10/24 00:03:40;;;;;;;6.20;1.48;;;25.40;67.00;;;;;;4160340;28;20492;-53
2022/10/24 00:06:04;;;;;;;2.58;1.10;;;25.40;67.30;;;;;;4163802;28;20043;-58
2022/10/24 00:08:26;;;;;;;3.30;1.50;;;25.40;67.40;;;;;;4158596;28;20123;-56
2022/10/24 00:10:49;;;;;;;5.18;1.55;;;25.30;67.50;;;;;;4169116;28;20510;-57
2022/10/24 00:13:14;;;;;;;3.38;1.38;;;25.20;67.50;;;;;;4169896;28;20044;-57
2022/10/24 00:15:38;;;;;;;4.40;1.38;;;25.20;67.70;;;;;;4176811;28;20487;-57
2022/10/24 00:18:00;;;;;;;6.25;1.67;;;25.10;67.90;;;;;;4162375;28;20492;-56
2022/10/24 00:20:23;;;;;;;4.43;1.42;;;25.10;68.00;;;;;;4161082;28;20445;-57
2022/10/24 00:22:45;;;;;;;4.28;1.20;;;25.10;68.20;;;;;;4164724;28;20048;-57
2022/10/24 00:25:08;;;;;;;3.95;1.55;;;25.10;68.20;;;;;;4162464;28;20124;-58
2022/10/24 00:27:31;;;;;;;2.58;1.20;;;25.00;68.20;;;;;;4169198;28;20409;-55
2022/10/24 00:29:53;;;;;;;3.90;1.10;;;25.00;68.30;;;;;;4161599;28;20079;-56
2022/10/24 00:32:16;;;;;;;4.18;1.40;;;25.00;68.40;;;;;;4159430;28;20127;-53
2022/10/24 00:34:39;;;;;;;3.63;1.05;;;24.90;68.70;;;;;;4161734;28;20116;-53
2022/10/24 00:37:02;;;;;;;5.10;1.15;;;24.90;68.60;;;;;;4166901;28;20045;-58
2022/10/24 00:39:25;;;;;;;3.63;1.02;;;24.80;68.70;;;;;;4161894;28;20063;-54
2022/10/24 00:41:48;;;;;;;5.57;1.25;;;24.80;68.80;;;;;;4162229;28;20272;-51
2022/10/24 00:44:19;;;;;;;5.75;1.15;;;24.80;68.90;;;;;;4167889;28;20044;-59
2022/10/24 00:46:46;;;;;;;3.75;1.42;;;24.80;69.00;;;;;;4166927;28;20499;-57
2022/10/24 00:49:14;;;;;;;4.28;1.35;;;24.70;69.00;;;;;;4167161;28;20155;-60
2022/10/24 00:51:37;;;;;;;3.63;1.27;;;24.70;69.10;;;;;;4165283;28;20048;-61
2022/10/24 00:54:05;;;;;;;3.27;0.90;;;24.70;69.10;;;;;;4166482;28;20416;-52
2022/10/24 00:56:32;;;;;;;3.45;1.30;;;24.70;69.30;;;;;;4166529;28;20041;-54
2022/10/24 00:58:56;;;;;;;4.28;1.38;;;24.70;69.20;;;;;;4151789;28;20037;-51
2022/10/24 01:01:19;;;;;;;2.33;0.95;;;24.60;69.20;;;;;;4166300;28;20125;-56
2022/10/24 01:03:41;;;;;;;2.83;1.30;;;24.60;69.30;;;;;;4157844;28;20032;-54
2022/10/24 01:06:22;;;;;;;3.03;0.90;;;24.60;69.40;;;;;;4163537;28;20037;-55
2022/10/24 01:09:00;;;;;;;1.90;0.88;;;24.60;69.40;;;;;;4168609;28;20378;-51
2022/10/24 01:11:48;;;;;;;3.45;1.13;;;24.60;69.50;;;;;;4165942;28;20120;-55
2022/10/24 01:14:45;;;;;;;3.03;1.05;;;24.60;69.40;;;;;;4135132;28;20136;-57
2022/10/24 01:17:25;;;;;;;1.83;1.00;;;24.50;69.40;;;;;;4170178;28;20040;-55
2022/10/24 01:20:06;;;;;;;3.78;1.45;;;24.50;69.50;;;;;;4166191;28;20037;-53
2022/10/24 01:22:47;;;;;;;4.18;0.82;;;24.50;69.50;;;;;;4164139;28;20047;-54
2022/10/24 01:25:18;;;;;;;4.43;1.13;;;24.50;69.50;;;;;;4163277;28;20049;-55
2022/10/24 01:27:47;;;;;;;4.18;0.95;;;24.50;69.60;;;;;;4166171;28;20473;-52
2022/10/24 01:30:15;;;;;;;4.03;1.50;;;24.50;69.60;;;;;;4169478;28;20242;-55
2022/10/24 01:33:03;;;;;;;2.45;1.02;;;24.50;69.70;;;;;;4165703;28;20156;-52
2022/10/24 01:35:26;;;;;;;2.00;1.00;;;24.50;69.70;;;;;;4166359;28;20060;-53
2022/10/24 01:37:49;;;;;;;2.08;0.90;;;24.40;69.80;;;;;;4169897;28;20855;-51
2022/10/24 01:40:19;;;;;;;2.55;1.15;;;24.40;69.70;;;;;;4163819;28;20045;-60
2022/10/24 01:42:45;;;;;;;2.72;0.90;;;24.40;70.00;;;;;;4168709;28;20051;-60
2022/10/24 01:45:10;;;;;;;1.70;0.80;;;24.40;70.00;;;;;;4162853;28;20047;-60
2022/10/24 01:47:41;;;;;;;1.75;1.08;;;24.30;70.00;;;;;;4170593;28;20110;-58
2022/10/24 01:50:08;;;;;;;2.33;1.00;;;24.30;69.40;;;;;;4165472;28;20116;-53
2022/10/24 01:52:35;;;;;;;2.63;1.00;;;24.30;69.20;;;;;;4167201;28;20043;-47
2022/10/24 01:54:58;;;;;;;0.90;0.63;;;24.20;68.50;;;;;;4172870;28;20051;-53
2022/10/24 01:57:26;;;;;;;3.10;0.88;;;24.10;68.90;;;;;;4167833;28;20767;-50
2022/10/24 01:59:49;;;;;;;2.08;0.88;;;24.00;69.20;;;;;;4164095;28;20199;-52
2022/10/24 02:02:26;;;;;;;1.67;0.80;;;24.00;69.30;;;;;;4166743;28;20064;-53
2022/10/24 02:04:57;;;;;;;2.03;0.90;;;23.90;69.50;;;;;;4166902;28;20457;-57
2022/10/24 02:07:22;;;;;;;2.42;0.80;;;23.80;69.60;;;;;;4174179;28;20052;-60
2022/10/24 02:09:48;;;;;;;3.13;1.00;;;23.80;69.80;;;;;;4168132;28;20045;-61
2022/10/24 02:12:13;;;;;;;2.97;1.02;;;23.80;69.90;;;;;;4172940;28;20492;-61
2022/10/24 02:15:01;;;;;;;1.58;0.88;;;23.80;70.00;;;;;;4168639;28;20076;-61
2022/10/24 02:17:24;;;;;;;2.10;1.00;;;23.80;70.10;;;;;;4166563;28;20067;-60
2022/10/24 02:19:47;;;;;;;4.03;1.00;;;23.70;70.00;;;;;;4170577;28;20048;-60
2022/10/24 02:22:36;;;;;;;2.33;0.95;;;23.70;70.10;;;;;;4162837;28;20061;-59
2022/10/24 02:25:08;;;;;;;1.92;1.10;;;23.70;70.10;;;;;;4160452;28;20049;-61
2022/10/24 02:27:44;;;;;;;2.92;1.10;;;23.70;70.30;;;;;;4164946;28;20041;-59
2022/10/24 02:30:24;;;;;;;1.60;0.85;;;23.70;70.70;;;;;;4165233;28;20036;-57
2022/10/24 02:32:53;;;;;;;6.60;1.05;;;23.70;71.00;;;;;;4167531;28;20045;-61
2022/10/24 02:35:19;;;;;;;1.40;0.77;;;23.70;71.10;;;;;;4164751;28;20045;-62
2022/10/24 02:37:52;;;;;;;2.80;0.85;;;23.70;71.30;;;;;;4161336;28;20052;-62
2022/10/24 02:40:17;;;;;;;1.10;0.80;;;23.70;71.30;;;;;;4164626;28;20127;-62
2022/10/24 02:42:42;;;;;;;2.15;1.02;;;23.70;71.40;;;;;;4158608;28;20436;-59
2022/10/24 02:45:08;;;;;;;2.53;1.02;;;23.70;71.40;;;;;;4155138;28;20141;-62
2022/10/24 02:47:32;;;;;;;2.25;0.98;;;23.70;71.50;;;;;;4171826;28;20037;-62
2022/10/24 02:49:55;;;;;;;1.35;0.82;;;23.70;71.50;;;;;;4185553;28;20467;-61
2022/10/24 02:52:18;;;;;;;6.90;1.00;;;23.80;71.60;;;;;;4177354;28;20119;-63
2022/10/24 02:54:40;;;;;;;2.42;1.00;;;23.70;71.50;;;;;;4164910;28;20037;-58
2022/10/24 02:57:04;;;;;;;2.53;0.82;;;23.80;71.70;;;;;;4169994;28;20442;-61
2022/10/24 02:59:27;;;;;;;2.53;0.60;;;23.70;71.70;;;;;;4172039;28;20114;-62
2022/10/24 03:01:49;;;;;;;1.73;0.85;;;23.80;71.80;;;;;;4157031;28;20050;-61
2022/10/24 03:04:12;;;;;;;3.85;1.10;;;23.80;71.80;;;;;;4166527;28;20039;-61
2022/10/24 03:06:34;;;;;;;5.60;0.88;;;23.80;71.80;;;;;;4169754;28;20090;-60
2022/10/24 03:08:57;;;;;;;1.90;0.70;;;23.80;71.90;;;;;;4162844;28;20037;-61
2022/10/24 03:11:19;;;;;;;2.33;0.70;;;23.80;71.90;;;;;;4167588;28;20126;-59
2022/10/24 03:13:42;;;;;;;2.33;0.98;;;23.80;71.90;;;;;;4170217;28;20514;-60
2022/10/24 03:16:04;;;;;;;8.32;1.20;;;23.80;72.00;;;;;;4163818;28;20036;-62
2022/10/24 03:18:27;;;;;;;3.00;0.75;;;23.80;72.00;;;;;;4164296;28;20412;-61
2022/10/24 03:20:49;;;;;;;2.22;0.90;;;23.80;72.00;;;;;;4164203;28;20487;-61
2022/10/24 03:23:15;;;;;;;1.98;0.60;;;23.80;72.10;;;;;;4157346;28;20128;-60
2022/10/24 03:25:37;;;;;;;3.70;0.90;;;23.80;72.10;;;;;;4158058;28;20029;-62
2022/10/24 03:28:00;;;;;;;1.85;0.73;;;23.80;72.10;;;;;;4161077;28;20045;-59
2022/10/24 03:30:23;;;;;;;2.53;0.77;;;23.80;72.20;;;;;;4164661;28;20088;-60
2022/10/24 03:32:45;;;;;;;4.47;0.85;;;23.80;72.20;;;;;;4156027;28;20642;-62
2022/10/24 03:35:08;;;;;;;7.25;0.98;;;23.80;72.20;;;;;;4162040;28;20075;-59
2022/10/24 03:37:31;;;;;;;1.88;0.93;;;23.80;72.20;;;;;;4149107;28;20131;-58
2022/10/24 03:39:54;;;;;;;1.25;0.60;;;23.80;72.10;;;;;;4129362;28;20038;-60
2022/10/24 03:42:16;;;;;;;3.22;1.10;;;23.80;72.10;;;;;;4146229;28;20739;-60
2022/10/24 03:44:39;;;;;;;2.20;0.60;;;23.80;72.10;;;;;;4147263;28;20030;-60
2022/10/24 03:47:02;;;;;;;3.05;0.80;;;23.80;72.20;;;;;;4142311;28;20148;-58
2022/10/24 03:49:28;;;;;;;1.67;0.77;;;23.80;72.20;;;;;;4142994;28;20509;-60
2022/10/24 03:51:51;;;;;;;2.30;0.47;;;23.80;72.20;;;;;;4138434;28;20365;-60
2022/10/24 03:54:14;;;;;;;2.00;0.82;;;23.80;72.20;;;;;;4158050;28;20041;-60
2022/10/24 03:56:36;;;;;;;2.20;1.07;;;23.80;72.20;;;;;;4159325;28;20210;-60
2022/10/24 03:58:59;;;;;;;3.20;0.90;;;23.90;72.40;;;;;;4150203;28;20042;-60
2022/10/24 04:01:23;;;;;;;3.50;1.27;;;23.80;72.20;;;;;;4138081;28;20444;-60
2022/10/24 04:03:46;;;;;;;3.65;0.85;;;23.80;72.20;;;;;;4144126;28;20088;-59
2022/10/24 04:06:09;;;;;;;2.03;0.88;;;23.80;72.20;;;;;;4146720;28;20038;-59
2022/10/24 04:08:31;;;;;;;4.45;1.20;;;23.80;72.20;;;;;;4142374;28;20133;-59
2022/10/24 04:10:54;;;;;;;2.50;1.10;;;23.80;72.30;;;;;;4143558;28;20132;-57
2022/10/24 04:13:16;;;;;;;5.18;1.00;;;23.80;72.30;;;;;;4146868;28;20552;-58
2022/10/24 04:15:39;;;;;;;2.55;1.05;;;23.80;72.30;;;;;;4141765;28;20242;-58
2022/10/24 04:18:02;;;;;;;2.30;1.00;;;23.80;72.40;;;;;;4143592;28;20060;-58
2022/10/24 04:20:24;;;;;;;2.65;1.20;;;23.80;72.50;;;;;;4143906;28;20137;-57
2022/10/24 04:22:48;;;;;;;1.90;0.95;;;23.80;72.60;;;;;;4145146;28;20069;-59
2022/10/24 04:25:10;;;;;;;2.88;1.40;;;23.70;72.50;;;;;;4148497;28;20038;-60
2022/10/24 04:27:35;;;;;;;3.10;1.05;;;23.70;72.50;;;;;;4146344;28;20466;-60
2022/10/24 04:29:57;;;;;;;1.95;0.90;;;23.70;72.60;;;;;;4145756;28;20048;-60
2022/10/24 04:32:20;;;;;;;2.65;1.10;;;23.70;72.70;;;;;;4144008;28;20042;-60
2022/10/24 04:34:43;;;;;;;3.05;1.27;;;23.70;72.70;;;;;;4144495;28;20053;-61
2022/10/24 04:37:06;;;;;;;12.40;1.58;;;23.70;72.80;;;;;;4124831;28;20481;-62
2022/10/24 04:39:28;;;;;;;8.75;1.33;;;23.70;72.80;;;;;;4145102;28;20466;-63
2022/10/24 04:41:51;;;;;;;4.88;1.17;;;23.70;72.90;;;;;;4146604;28;20544;-61
2022/10/24 04:44:14;;;;;;;5.97;1.35;;;23.70;72.90;;;;;;4148979;28;20119;-62
2022/10/24 04:46:36;;;;;;;4.15;1.13;;;23.70;73.10;;;;;;4150616;28;20112;-62
2022/10/24 04:48:59;;;;;;;4.15;1.40;;;23.70;73.00;;;;;;4149709;28;20037;-62
2022/10/24 04:51:22;;;;;;;5.60;1.52;;;23.70;73.00;;;;;;4150587;28;20037;-63
2022/10/24 04:53:44;;;;;;;3.95;1.20;;;23.70;73.00;;;;;;4149033;28;20560;-62
2022/10/24 04:56:07;;;;;;;6.93;1.33;;;23.70;72.90;;;;;;4149252;28;20026;-58
2022/10/24 04:58:30;;;;;;;8.83;2.13;;;23.70;72.50;;;;;;4142031;28;20475;-56
2022/10/24 05:00:52;;;;;;;6.10;1.60;;;23.70;72.70;;;;;;4155846;28;20052;-60
2022/10/24 07:23:52;;;;;;;3.03;1.60;;;22.70;74.50;;;;;;4278186;23;20537;-57
2022/10/24 07:26:16;;;;;;;2.45;1.35;;;22.70;74.70;;;;;;4023156;29;20306;-57
2022/10/24 07:28:38;;;;;;;;;;;22.70;74.70;;;;;;4044836;29;20039;-56
2022/10/24 07:31:02;;;;;;;3.15;1.33;;;22.70;74.50;;;;;;4033246;29;19950;-57
2022/10/24 07:33:24;;;;;;;2.00;1.33;;;22.70;74.60;;;;;;4053402;29;20512;-55
2022/10/24 07:35:47;;;;;;;3.25;1.48;;;22.70;74.60;;;;;;4039201;29;20056;-52
2022/10/24 07:38:09;;;;;;;2.72;1.45;;;22.70;74.60;;;;;;4040783;29;20669;-51
2022/10/24 07:40:32;;;;;;;4.82;1.70;;;22.70;74.60;;;;;;4041971;29;20118;-53
2022/10/24 07:42:54;;;;;;;2.47;1.60;;;22.70;74.70;;;;;;4032559;29;20040;-54
2022/10/24 07:45:17;;;;;;;2.88;1.48;;;22.70;74.80;;;;;;4048940;29;20058;-54
2022/10/24 07:47:40;;;;;;;3.10;1.65;;;22.70;74.90;;;;;;4046067;29;20036;-53
2022/10/24 07:50:03;;;;;;;2.03;1.35;;;22.60;74.90;;;;;;4042822;29;20039;-56
2022/10/24 07:52:25;;;;;;;2.83;1.70;;;22.60;75.20;;;;;;4044972;29;20068;-56
2022/10/24 07:54:48;;;;;;;2.20;1.50;;;22.60;75.10;;;;;;4047384;29;20139;-55
2022/10/24 07:57:11;;;;;;;4.13;1.83;;;22.60;75.30;;;;;;4047784;29;20068;-56
2022/10/24 07:59:33;;;;;;;4.20;1.70;;;22.60;75.40;;;;;;4048167;29;20155;-54
2022/10/24 08:01:56;;;;;;;2.92;1.90;;;22.60;75.40;;;;;;4050466;29;20039;-54
2022/10/24 08:04:18;;;;;;;3.38;1.80;;;22.60;75.50;;;;;;4048031;29;20051;-56
2022/10/24 08:06:41;;;;;;;3.00;1.40;;;22.60;75.50;;;;;;4041110;29;20037;-56
2022/10/24 08:09:04;;;;;;;2.97;2.00;;;22.60;75.50;;;;;;4045067;29;20619;-56
2022/10/24 08:11:28;;;;;;;3.13;1.50;;;22.50;75.70;;;;;;4039683;29;20096;-55
2022/10/24 08:13:53;;;;;;;3.75;1.52;;;22.50;75.70;;;;;;4037463;29;20048;-55
2022/10/24 08:16:17;;;;;;;2.08;1.38;;;22.50;75.80;;;;;;4041514;29;20188;-54
2022/10/24 08:18:40;;;;;;;2.30;1.52;;;22.50;75.70;;;;;;4034945;29;20048;-54
2022/10/24 08:21:05;;;;;;;2.00;1.48;;;22.50;75.80;;;;;;4046033;29;20376;-55
2022/10/24 08:23:28;;;;;;;2.60;1.60;;;22.50;75.90;;;;;;4047183;29;20456;-56
2022/10/24 08:25:51;;;;;;;2.72;1.70;;;22.50;76.00;;;;;;4047055;29;20082;-53
2022/10/24 08:28:13;;;;;;;3.78;1.58;;;22.50;75.90;;;;;;4046725;29;20151;-54
2022/10/24 08:30:36;;;;;;;3.28;1.75;;;22.50;76.10;;;;;;4049660;29;20036;-56
2022/10/24 08:32:58;;;;;;;2.58;1.40;;;22.50;76.30;;;;;;4049009;29;20039;-56
2022/10/24 08:35:21;;;;;;;3.78;1.73;;;22.50;76.40;;;;;;4047409;29;20056;-55
2022/10/24 08:37:43;;;;;;;4.13;2.00;;;22.50;76.50;;;;;;4045784;29;20036;-56
2022/10/24 08:40:11;;;;;;;5.10;2.10;;;22.40;76.70;;;;;;4041746;29;20039;-54
2022/10/24 08:42:34;;;;;;;4.55;2.08;;;22.40;77.30;;;;;;4040188;29;20055;-57
2022/10/24 08:44:57;;;;;;;3.33;1.90;;;22.40;76.70;;;;;;4039747;29;20054;-55
2022/10/24 08:47:37;;;;;;;3.90;1.75;;;22.40;76.80;;;;;;4044314;29;20184;-57
2022/10/24 08:50:21;;;;;;;3.70;1.70;;;22.40;76.70;;;;;;4041905;29;20079;-56
2022/10/24 08:53:03;;;;;;;4.10;1.80;;;22.40;76.70;;;;;;4048419;29;20112;-53
2022/10/24 08:55:30;;;;;;;3.28;1.90;;;22.40;76.70;;;;;;4047307;29;20081;-57
2022/10/24 08:57:58;;;;;;;4.82;2.05;;;22.40;77.40;;;;;;4045473;29;20114;-56
2022/10/24 09:00:23;;;;;;;3.92;1.60;;;22.40;77.00;;;;;;4047842;29;20044;-56
2022/10/24 09:03:15;;;;;;;3.97;1.83;;;22.40;76.90;;;;;;4051382;29;20040;-57
2022/10/24 09:05:52;;;;;;;4.38;1.85;;;22.40;77.10;;;;;;4035288;29;20040;-56
2022/10/24 09:08:42;;;;;;;3.53;2.10;;;22.40;77.10;;;;;;4046876;29;20033;-52
2022/10/24 09:11:07;;;;;;;3.92;1.95;;;22.40;77.20;;;;;;4044030;29;20468;-57
2022/10/24 09:13:33;;;;;;;4.68;1.77;;;22.40;77.20;;;;;;4050222;29;20135;-58
2022/10/24 09:15:56;;;;;;;5.05;2.15;;;22.40;77.30;;;;;;4040970;29;20422;-56
2022/10/24 09:18:33;;;;;;;4.25;1.88;;;22.40;77.20;;;;;;4050698;29;20044;-57
2022/10/24 09:20:56;;;;;;;4.78;2.33;;;22.40;77.20;;;;;;4054443;29;20131;-55
2022/10/24 09:23:22;;;;;;;4.83;1.83;;;22.40;77.20;;;;;;4053568;29;20043;-55
2022/10/24 09:25:49;;;;;;;3.70;1.75;;;22.40;77.30;;;;;;4054242;29;20286;-51
2022/10/24 09:28:13;;;;;;;5.25;1.88;;;22.30;77.30;;;;;;4052368;29;20447;-50
2022/10/24 09:30:36;;;;;;;3.95;1.63;;;22.30;77.30;;;;;;4057964;29;20395;-50
2022/10/24 09:33:02;;;;;;;5.95;2.22;;;22.30;77.40;;;;;;4049271;29;20153;-53
2022/10/24 09:35:27;;;;;;;5.05;2.00;;;22.30;77.40;;;;;;4053036;29;20099;-52
2022/10/24 09:38:19;;;;;;;5.05;2.00;;;22.30;77.60;;;;;;4050599;29;20036;-52
2022/10/24 09:40:47;;;;;;;4.05;1.80;;;22.30;77.50;;;;;;4050883;29;20048;-49
2022/10/24 09:43:13;;;;;;;4.47;2.10;;;22.30;77.60;;;;;;4048114;29;20036;-49
2022/10/24 09:45:40;;;;;;;4.72;2.00;;;22.30;77.70;;;;;;4053104;29;20222;-52
2022/10/24 09:48:41;;;;;;;4.38;2.10;;;22.30;77.60;;;;;;4051639;29;20794;-53
2022/10/24 09:51:06;;;;;;;4.45;2.10;;;22.30;77.70;;;;;;4049821;29;20441;-52
2022/10/24 09:53:31;;;;;;;4.13;2.08;;;22.30;77.80;;;;;;4045234;29;20052;-51
2022/10/24 09:56:01;;;;;;;6.43;2.20;;;22.30;77.90;;;;;;4047665;29;20083;-53
2022/10/24 09:58:31;;;;;;;4.68;2.03;;;22.30;78.00;;;;;;4042801;29;20068;-54
2022/10/24 10:01:00;;;;;;;4.15;2.50;;;22.30;77.90;;;;;;4048198;29;20044;-50
2022/10/24 10:03:24;;;;;;;6.63;2.42;;;22.30;78.10;;;;;;4044947;29;20048;-53
2022/10/24 10:05:52;;;;;;;;;;;22.30;78.20;;;;;;4048117;29;20444;-49
2022/10/24 10:08:31;;;;;;;4.80;2.65;;;22.30;78.10;;;;;;4049263;29;19914;-47
2022/10/24 10:11:00;;;;;;;5.75;3.75;;;22.30;78.20;;;;;;4051774;29;20427;-54
2022/10/24 10:13:24;;;;;;;6.93;3.97;;;22.30;78.30;;;;;;4051931;29;20040;-52
2022/10/24 10:15:49;;;;;;;7.85;4.25;;;22.30;78.50;;;;;;4050606;29;20385;-53
2022/10/24 10:18:38;;;;;;;6.18;4.45;;;22.30;78.50;;;;;;4048910;29;20036;-54
2022/10/24 10:21:22;;;;;;;6.20;4.60;;;22.30;78.70;;;;;;4052429;29;20429;-52
2022/10/24 10:23:49;;;;;;;7.03;5.00;;;22.30;78.90;;;;;;4048932;29;20065;-51
2022/10/24 10:26:26;;;;;;;6.95;4.30;;;22.30;79.00;;;;;;4049908;29;20040;-54
2022/10/24 10:28:54;;;;;;;8.15;4.43;;;22.30;79.00;;;;;;4049392;29;20520;-50
2022/10/24 10:31:20;;;;;;;6.72;4.43;;;22.30;79.10;;;;;;4046505;29;20044;-53
2022/10/24 10:34:04;;;;;;;5.72;4.47;;;22.30;79.20;;;;;;4050729;29;20055;-48
2022/10/24 10:36:47;;;;;;;6.63;4.13;;;22.30;79.20;;;;;;4049137;29;20500;-51
2022/10/24 10:39:36;;;;;;;5.47;4.20;;;22.20;79.20;;;;;;4049576;29;20083;-55
2022/10/24 10:42:30;;;;;;;7.25;3.78;;;22.30;79.30;;;;;;4045935;29;20036;-53
2022/10/24 10:45:15;;;;;;;10.40;4.40;;;22.30;79.20;;;;;;4047128;29;20567;-59
2022/10/24 10:48:05;;;;;;;9.80;4.00;;;22.20;79.00;;;;;;4048083;29;20055;-57
2022/10/24 10:50:38;;;;;;;8.65;4.13;;;22.30;79.40;;;;;;4043569;29;20048;-54
2022/10/24 10:53:31;;;;;;;7.35;3.63;;;22.30;79.60;;;;;;4040182;29;20577;-58
2022/10/24 10:56:14;;;;;;;7.00;3.80;;;22.30;79.50;;;;;;4042887;29;20595;-58
2022/10/24 10:58:54;;;;;;;11.07;3.83;;;22.30;79.40;;;;;;4044240;29;20047;-55
2022/10/24 11:02:01;;;;;;;6.97;3.88;;;22.40;79.30;;;;;;4043859;29;20075;-59
2022/10/24 11:04:42;;;;;;;7.82;3.58;;;22.40;79.30;;;;;;4046306;29;20068;-49
2022/10/24 11:07:13;;;;;;;6.50;3.20;;;22.40;79.10;;;;;;4052658;29;20070;-53
2022/10/24 11:10:10;;;;;;;4.88;2.92;;;22.40;78.70;;;;;;4044444;29;20072;-51
2022/10/24 11:12:44;;;;;;;5.82;3.22;;;22.40;78.30;;;;;;4047159;29;20028;-59
2022/10/24 11:15:18;;;;;;;5.13;2.55;;;22.40;78.30;;;;;;4044199;29;20056;-59
2022/10/24 11:17:49;;;;;;;6.65;2.70;;;22.40;78.90;;;;;;4044059;29;20051;-56
2022/10/24 11:20:18;;;;;;;5.70;3.10;;;22.40;79.20;;;;;;4044925;29;20071;-55
2022/10/24 11:23:06;;;;;;;10.57;3.40;;;22.40;79.50;;;;;;4045440;29;20055;-54
2022/10/24 11:25:42;;;;;;;5.80;2.88;;;22.40;79.60;;;;;;4046876;29;20052;-58
2022/10/24 11:28:40;;;;;;;11.23;2.33;;;22.40;79.60;;;;;;4045025;29;20048;-55
2022/10/24 11:31:22;;;;;;;6.90;2.63;;;22.40;79.60;;;;;;4036530;29;20708;-54
2022/10/24 11:33:56;;;;;;;5.05;2.42;;;22.40;79.60;;;;;;4041444;29;20066;-55
2022/10/24 11:36:37;;;;;;;4.80;2.17;;;22.40;79.60;;;;;;4042083;29;20555;-56
2022/10/24 11:39:12;;;;;;;5.05;2.35;;;22.40;79.50;;;;;;4043839;29;20040;-57
2022/10/24 11:41:47;;;;;;;7.15;2.35;;;22.40;79.50;;;;;;4044189;29;20047;-48
2022/10/24 11:44:25;;;;;;;3.67;2.00;;;22.40;79.60;;;;;;4046353;29;20347;-56
2022/10/24 11:47:00;;;;;;;4.28;2.20;;;22.40;79.70;;;;;;4041473;29;20135;-57
2022/10/24 11:49:32;;;;;;;4.55;2.30;;;22.50;79.70;;;;;;4043671;29;20076;-57
2022/10/24 11:51:57;;;;;;;5.63;2.42;;;22.50;79.70;;;;;;4044978;29;20040;-54
2022/10/24 11:54:37;;;;;;;5.28;2.33;;;22.50;79.70;;;;;;4041708;29;20084;-58
2022/10/24 11:57:11;;;;;;;5.50;2.00;;;22.50;79.70;;;;;;4043414;29;20044;-51
2022/10/24 11:59:33;;;;;;;;;;;22.50;79.70;;;;;;4041086;29;20451;-54
2022/10/24 12:02:14;;;;;;;3.53;1.77;;;22.50;79.60;;;;;;4050403;29;20085;-51
2022/10/24 12:05:00;;;;;;;4.07;2.08;;;22.50;79.60;;;;;;4046681;29;20048;-53
2022/10/24 12:07:54;;;;;;;6.25;2.13;;;22.50;79.50;;;;;;4049999;29;20514;-51
2022/10/24 12:10:55;;;;;;;6.05;2.00;;;22.50;79.60;;;;;;4044530;29;20499;-55
2022/10/24 12:13:58;;;;;;;8.20;1.63;;;22.50;79.60;;;;;;4041991;29;20500;-52
2022/10/24 12:16:52;;;;;;;5.20;1.73;;;22.50;79.50;;;;;;4043317;29;20520;-53
2022/10/24 12:19:18;;;;;;;2.87;1.60;;;22.50;79.40;;;;;;4041777;29;20044;-53
2022/10/24 12:21:53;;;;;;;3.38;1.70;;;22.50;79.40;;;;;;4043792;29;20068;-52
2022/10/24 12:24:33;;;;;;;4.20;1.92;;;22.50;79.30;;;;;;4042960;29;20064;-51
2022/10/24 12:27:18;;;;;;;5.93;1.83;;;22.50;79.40;;;;;;4046875;29;20464;-62
2022/10/24 12:29:43;;;;;;;3.65;1.48;;;22.60;79.20;;;;;;4048010;29;20091;-61
2022/10/24 12:32:29;;;;;;;2.83;1.60;;;22.60;79.30;;;;;;4049904;29;20423;-66
2022/10/24 12:35:00;;;;;;;8.77;2.70;;;22.60;79.20;;;;;;4043868;29;20040;-67
2022/10/24 12:37:24;;;;;;;7.88;1.35;;;22.60;79.00;;;;;;4039793;29;20044;-64
2022/10/24 12:39:52;;;;;;;4.97;1.92;;;22.60;79.10;;;;;;4044202;29;20048;-64
2022/10/24 12:42:37;;;;;;;3.97;2.22;;;22.60;79.10;;;;;;4044876;29;20296;-62
2022/10/24 12:44:59;;;;;;;3.38;1.48;;;22.60;79.20;;;;;;4043305;29;20518;-63
2022/10/24 12:47:43;;;;;;;4.45;2.10;;;22.60;79.30;;;;;;4042182;29;20127;-66
2022/10/24 12:50:20;;;;;;;6.75;1.95;;;22.60;79.30;;;;;;4038329;29;20067;-62
2022/10/24 12:52:46;;;;;;;3.45;1.67;;;22.60;79.30;;;;;;4055608;29;20431;-62
2022/10/24 12:55:37;;;;;;;11.60;1.80;;;22.60;79.80;;;;;;4048139;29;20052;-62
2022/10/24 12:58:02;;;;;;;3.05;1.42;;;22.60;79.30;;;;;;4047241;29;20436;-63
2022/10/24 13:00:32;;;;;;;6.22;1.52;;;22.60;79.40;;;;;;4042664;29;20101;-63
2022/10/24 13:03:00;;;;;;;4.38;1.50;;;22.60;79.50;;;;;;4047165;29;20054;-65
2022/10/24 13:05:41;;;;;;;9.68;1.77;;;22.60;79.40;;;;;;4044535;29;20032;-64
2022/10/24 13:08:20;;;;;;;3.88;1.60;;;22.60;79.30;;;;;;4046420;29;20096;-65
2022/10/24 13:11:02;;;;;;;5.75;1.63;;;22.60;79.30;;;;;;4042128;29;20040;-64
2022/10/24 13:13:43;;;;;;;4.63;1.77;;;22.60;79.30;;;;;;4043988;29;20044;-64
2022/10/24 13:16:20;;;;;;;4.63;1.60;;;22.60;79.30;;;;;;4046586;29;20083;-61
2022/10/24 13:19:01;;;;;;;4.35;1.75;;;22.60;79.30;;;;;;4042047;29;20036;-63
2022/10/24 13:22:04;;;;;;;6.47;1.50;;;22.60;79.30;;;;;;4044541;29;20080;-61
2022/10/24 13:24:39;;;;;;;8.38;1.50;;;22.60;79.20;;;;;;4040501;29;20143;-65
2022/10/24 13:27:07;;;;;;;6.30;1.27;;;22.50;79.30;;;;;;4044896;29;20041;-62
2022/10/24 13:29:29;;;;;;;7.82;1.58;;;22.60;79.40;;;;;;4044151;29;20100;-64
2022/10/24 13:31:54;;;;;;;7.13;1.63;;;22.60;79.40;;;;;;4045759;29;20657;-66
2022/10/24 13:34:31;;;;;;;9.18;1.80;;;22.60;79.50;;;;;;4042944;29;20107;-62
2022/10/24 13:37:05;;;;;;;5.30;1.80;;;22.60;79.40;;;;;;4049284;29;20063;-65
2022/10/24 13:39:32;;;;;;;5.70;1.55;;;22.60;79.40;;;;;;4049420;29;20047;-61
2022/10/24 13:42:04;;;;;;;6.75;1.60;;;22.60;79.20;;;;;;4050871;29;20156;-65
2022/10/24 13:44:29;;;;;;;10.48;2.20;;;22.60;79.40;;;;;;4054166;29;20040;-66
2022/10/24 13:47:17;;;;;;;11.02;1.70;;;22.60;79.50;;;;;;4047729;29;20046;-62
2022/10/24 13:49:45;;;;;;;8.57;2.08;;;22.60;79.40;;;;;;4051084;29;20476;-66
2022/10/24 13:52:20;;;;;;;4.55;1.60;;;22.60;79.90;;;;;;4044749;29;20040;-65
2022/10/24 13:54:45;;;;;;;4.53;1.25;;;22.70;79.30;;;;;;4044804;29;20056;-65
2022/10/24 13:57:25;;;;;;;5.97;1.80;;;22.60;79.20;;;;;;4048786;29;20473;-68
2022/10/24 13:59:57;;;;;;;7.70;1.60;;;22.70;79.10;;;;;;4044952;29;20040;-61
2022/10/24 14:02:24;;;;;;;9.73;1.60;;;22.60;79.10;;;;;;4044913;29;20084;-61
2022/10/24 14:04:48;;;;;;;8.20;2.15;;;22.70;79.10;;;;;;4046712;29;20510;-64
2022/10/24 14:07:24;;;;;;;3.70;1.80;;;22.70;79.20;;;;;;4045483;29;20071;-63
2022/10/24 14:09:57;;;;;;;10.50;1.80;;;22.70;79.20;;;;;;4045099;29;20036;-62
2022/10/24 14:12:23;;;;;;;5.10;1.60;;;22.70;79.20;;;;;;4047472;29;20047;-62
2022/10/24 14:14:50;;;;;;;9.15;1.58;;;22.70;79.20;;;;;;4047127;29;20080;-60
2022/10/24 14:17:31;;;;;;;7.68;2.42;;;22.70;79.10;;;;;;4051328;28;20115;-68
2022/10/24 14:20:19;;;;;;;11.73;1.80;;;22.70;79.10;;;;;;4047499;29;20515;-66
2022/10/24 14:22:42;;;;;;;10.43;1.63;;;22.80;79.20;;;;;;4043884;29;20048;-64
2022/10/24 14:25:06;;;;;;;7.10;1.73;;;22.70;79.00;;;;;;4042635;29;20104;-62
2022/10/24 14:27:29;;;;;;;6.90;1.70;;;22.70;79.10;;;;;;4045202;29;20036;-61
2022/10/24 14:30:01;;;;;;;10.80;2.13;;;22.70;79.00;;;;;;4043916;29;20107;-61
2022/10/24 14:32:25;;;;;;;5.75;1.77;;;22.70;79.00;;;;;;4039949;29;20412;-61
2022/10/24 14:34:49;;;;;;;7.95;2.05;;;22.70;79.00;;;;;;4045083;29;20485;-62
2022/10/24 14:37:27;;;;;;;3.45;1.63;;;22.70;79.00;;;;;;4049912;29;20547;-62
2022/10/24 14:39:50;;;;;;;6.53;1.65;;;22.70;78.90;;;;;;4047080;29;20078;-65
2022/10/24 14:42:17;;;;;;;3.15;1.33;;;22.70;79.00;;;;;;4045527;29;20040;-62
2022/10/24 14:44:45;;;;;;;3.50;1.67;;;22.70;79.00;;;;;;4048487;29;20044;-63
2022/10/24 14:47:22;;;;;;;7.75;1.80;;;22.70;79.10;;;;;;4048140;29;20032;-63
2022/10/24 14:49:45;;;;;;;7.15;1.55;;;22.70;79.10;;;;;;4045505;29;20103;-63
2022/10/24 14:52:19;;;;;;;5.30;1.80;;;22.70;79.00;;;;;;4046539;29;20103;-63
2022/10/24 14:54:51;;;;;;;4.18;1.75;;;22.70;79.00;;;;;;4047407;29;20048;-63
2022/10/24 14:57:20;;;;;;;4.00;1.48;;;22.70;78.90;;;;;;4051160;29;20037;-65
2022/10/24 14:59:46;;;;;;;4.50;1.58;;;22.60;79.00;;;;;;4050657;29;20050;-63
2022/10/24 15:02:28;;;;;;;3.38;1.30;;;22.70;79.00;;;;;;4045303;29;20044;-64
2022/10/24 15:04:53;;;;;;;5.47;1.65;;;22.60;78.90;;;;;;4048214;29;20051;-63
2022/10/24 15:07:29;;;;;;;2.22;1.35;;;22.60;78.90;;;;;;4050767;29;20476;-63
2022/10/24 15:10:12;;;;;;;5.60;1.70;;;22.60;78.80;;;;;;4049241;29;20044;-64
2022/10/24 15:12:40;;;;;;;6.00;1.98;;;22.60;78.80;;;;;;4048004;29;20047;-63
2022/10/24 15:15:20;;;;;;;4.10;1.17;;;22.60;78.80;;;;;;4052415;29;20060;-62
2022/10/24 15:17:43;;;;;;;3.72;1.65;;;22.60;78.90;;;;;;4050123;29;20513;-67
2022/10/24 15:20:11;;;;;;;3.50;1.45;;;22.60;78.90;;;;;;4049040;29;20055;-67
2022/10/24 15:22:37;;;;;;;4.88;1.77;;;22.60;78.90;;;;;;4053404;29;20040;-67